Terminal Aerodrome Forecast
Issued by NWS

Home | Current Version | Previous Version | Text Only | Print | Product List | Glossary On
Versions: 1 2 3 4 5 6 7 8 9 10 11 12 13 14 15 16 17 18 19 20 21 22 23 24 25 26 27 28
000
FTUS44 KFWD 161721
TAFDAL
TAF
KDAL 161721Z 1618/1718 19015KT P6SM SCT030 BKN150
     FM161900 20015KT P6SM VCSH SCT030 BKN080 BKN150
     FM162200 19015KT P6SM SCT030 SCT080 BKN150
     FM170100 17014KT P6SM SCT060 SCT250=

USA.gov is the U.S. government's official web portal to all federal, state and local government web resources and services.